Terminal Aerodrome Forecast
Issued by NWS

Home | Current Version | Previous Version | Text Only | Print | Product List | Glossary On
Versions: 1 2 3 4 5 6 7 8 9 10 11 12 13 14 15 16 17 18 19 20 21
269
FTUS46 KEKA 062323
TAFCEC
TAF
KCEC 062323Z 0700/0724 VRB05KT P6SM OVC050
     FM070100 VRB03KT P6SM BKN050
     FM071000 00000KT P6SM BKN050
     FM071500 VRB03KT P6SM BKN250
     FM071800 VRB05KT P6SM SKC=

USA.gov is the U.S. government's official web portal to all federal, state and local government web resources and services.